Latest Weather Observations for Montague Island

IDN60901

Issued at 12:52 pm EDT Saturday 16 October 2021 (issued every 10 minutes, with the page automatically refreshed every 10 minutes)

About weather observations | Map of Canberra area stations | Latest observations for Canberra area | Other Formats
Station Details ID: 069017 Name: MONTAGUE ISLAND LIGHTHOUSE Lat: -36.25 Lon: 150.23 Height: 52.0 m
Data from the previous 72 hours. | See also: Recent months at Montague Island
Date/Time
EDT
Temp
°C
App
Temp
°C
Dew
Point
°C
Rel
Hum
%
Delta-T
°C
Wind Press
QNH
hPa
Press
MSL
hPa
Rain since
9am
mm
Dir  Spd
km/h
Gust
km/h
Spd
kts
Gust
kts
16/12:30pm 17.8 12.0 7.8 52 5.1 WSW 28 43 15 23 999.6 999.5 0.0
16/12:00pm 17.5 8.6 7.0 50 5.3 WSW 43 54 23 29 999.3 999.2 0.0
16/11:30am 17.6 10.1 7.9 53 4.9 WSW 37 43 20 23 999.5 999.4 0.0
16/11:00am 17.6 11.1 8.2 54 4.8 WSW 32 41 17 22 999.4 999.3 0.0
16/10:30am 17.0 9.1 7.9 55 4.6 SW 39 48 21 26 999.2 999.1 0.0
16/10:16am 17.2 10.6 7.8 54 4.8 WSW 32 48 17 26 999.2 999.1 0.0
16/10:00am 16.8 11.7 7.7 55 4.6 W 24 32 13 17 999.2 999.1 0.0
16/09:30am 16.2 11.5 7.7 57 4.3 WNW 22 26 12 14 999.1 999.0 0.0
16/09:00am 15.1 9.9 7.4 60 3.8 WNW 24 30 13 16 998.8 998.7 9.6
16/08:30am 14.8 9.3 7.4 61 3.7 WNW 26 32 14 17 998.4 998.3 9.6
16/08:00am 14.2 9.3 8.4 68 2.9 NW 24 30 13 16 998.1 998.0 9.6
16/07:30am 13.6 9.5 8.7 72 2.5 NW 20 28 11 15 997.8 997.7 9.6
16/07:00am 14.5 9.9 6.6 59 3.9 NW 20 28 11 15 997.3 997.2 9.6
16/06:30am 14.3 9.0 6.6 60 3.7 NW 24 32 13 17 996.9 996.8 9.6
16/06:00am 14.2 7.7 6.3 59 3.8 WNW 30 35 16 19 996.6 996.5 9.6
16/05:30am 13.0 8.9 8.5 74 2.2 NW 20 28 11 15 996.4 996.3 9.6
16/05:00am 13.1 9.6 8.6 74 2.3 NW 17 24 9 13 996.3 996.2 9.6
16/04:30am 12.4 9.0 9.2 81 1.6 NNW 17 20 9 11 996.2 996.1 9.6
16/04:00am 12.5 8.7 9.1 80 1.7 NW 19 28 10 15 996.4 996.3 9.6
16/03:30am 12.5 9.1 9.0 79 1.8 NNW 17 26 9 14 996.7 996.6 9.6
16/03:00am 12.5 7.9 9.5 82 1.5 NNW 24 32 13 17 996.6 996.5 9.6
16/02:30am 12.7 7.5 10.1 84 1.3 NNW 28 35 15 19 996.7 996.6 9.6
16/02:00am 12.3 7.8 9.9 85 1.2 NNW 24 32 13 17 997.2 997.1 9.6
16/01:30am 12.3 7.9 10.5 89 0.9 NNW 24 32 13 17 997.6 997.5 9.6
16/01:00am 12.2 8.8 10.4 89 0.9 NNW 19 26 10 14 998.1 998.0 9.6
16/12:30am 12.4 8.8 10.5 88 1.0 NW 20 28 11 15 998.5 998.4 9.6
16/12:00am 12.1 8.4 10.2 88 1.0 NW 20 28 11 15 998.8 998.7 9.6
 
Date/Time
EDT
Temp
°C
App
Temp
°C
Dew
Point
°C
Rel
Hum
%
Delta-T
°C
Wind Press
QNH
hPa
Press
MSL
hPa
Rain since
9am
mm
Dir  Spd
km/h
Gust
km/h
Spd
kts
Gust
kts
15/11:30pm 12.2 8.4 9.9 86 1.2 NW 20 26 11 14 999.3 999.2 9.6
15/11:00pm 12.6 9.6 10.5 87 1.1 NW 17 22 9 12 999.7 999.6 9.6
15/10:30pm 12.1 9.4 10.3 89 0.9 NW 15 20 8 11 1000.0 999.9 9.6
15/10:00pm 12.0 9.3 10.4 90 0.8 W 15 19 8 10 1000.4 1000.3 9.6
15/09:30pm 11.9 8.5 10.5 91 0.7 WNW 19 24 10 13 1000.5 1000.4 9.6
15/09:00pm 12.2 9.0 11.1 93 0.6 WNW 19 22 10 12 1000.1 1000.0 9.6
15/08:30pm 11.8 10.0 11.0 95 0.4 WNW 11 15 6 8 1000.0 999.9 9.6
15/08:00pm 12.1 9.7 11.3 95 0.4 WSW 15 22 8 12 1000.1 1000.0 9.4
15/07:30pm 11.9 8.6 11.0 94 0.5 WNW 19 26 10 14 1000.1 1000.0 8.6
15/07:00pm 11.9 8.6 11.0 94 0.5 WSW 19 24 10 13 1000.0 999.9 8.2
15/06:30pm 12.0 7.6 10.4 90 0.8 SW 24 35 13 19 999.7 999.6 7.0
15/06:17pm 12.5 7.4 10.6 88 1.0 SSW 28 35 15 19 999.6 999.5 5.6
15/06:00pm 12.3 5.4 10.4 88 1.0 S 37 48 20 26 999.1 999.0 5.6
15/05:52pm 12.4 4.6 11.0 91 0.7 S 43 56 23 30 999.0 998.9 5.6
15/05:39pm 13.6 9.4 11.1 85 1.3 SSW 24 48 13 26 998.7 998.6 5.6
15/05:30pm 14.2 11.4 11.4 83 1.5 SSE 17 24 9 13 998.6 998.5 5.6
15/05:00pm 14.1 12.4 11.1 82 1.6 SE 11 20 6 11 998.6 998.5 5.6
15/04:30pm 13.9 12.3 10.3 79 1.9 ENE 9 15 5 8 998.1 998.0 5.6
15/04:00pm 13.4 12.2 9.5 77 2.0 E 6 9 3 5 998.4 998.3 5.6
15/03:30pm 13.8 9.0 9.0 73 2.4 SW 24 35 13 19 998.5 998.4 3.4
15/03:00pm 15.7 11.8 8.7 63 3.6 ESE 19 26 10 14 997.6 997.5 0.8
15/02:30pm 16.0 12.9 7.2 56 4.4 ESE 13 17 7 9 998.2 998.1 0.8
15/02:00pm 16.3 14.7 8.0 58 4.2 E 6 9 3 5 998.1 998.0 0.8
15/01:30pm 16.4 15.3 8.4 59 4.1 NE 4 9 2 5 998.1 998.0 0.8
15/01:00pm 15.9 14.7 8.2 60 3.9 SSE 4 7 2 4 998.3 998.2 0.8
15/12:30pm 15.3 13.1 9.2 67 3.1 NW 11 17 6 9 998.6 998.5 0.8
15/12:00pm 14.0 12.4 8.0 67 3.0 ESE 6 11 3 6 999.3 999.2 0.6
15/11:30am 14.0 12.3 8.2 68 2.9 N 7 19 4 10 1000.9 1000.8 0.2
15/11:00am 13.8 13.4 9.6 76 2.2 WSW 2 7 1 4 1000.9 1000.8 0.2
15/10:30am 14.5 10.0 11.3 81 1.7 W 26 33 14 18 1000.5 1000.4 0.2
15/10:00am 14.5 9.2 11.1 80 1.8 NW 30 41 16 22 1001.3 1001.2 0.0
15/09:30am 14.6 10.9 9.6 72 2.6 NW 19 26 10 14 1001.3 1001.2 0.0
15/09:00am 15.3 11.8 10.9 75 2.4 NW 20 28 11 15 1001.4 1001.3 6.2
15/08:30am 15.7 14.4 11.3 75 2.4 NNW 9 17 5 9 1001.2 1001.1 6.2
15/08:00am 16.6 14.2 12.6 77 2.2 ENE 17 26 9 14 1001.5 1001.4 6.2
15/07:30am 16.3 11.5 10.4 68 3.1 E 26 33 14 18 1000.9 1000.8 6.2
15/07:00am 15.5 12.0 10.1 70 2.8 ENE 19 22 10 12 1001.9 1001.8 6.2
15/06:30am 14.9 13.1 10.9 77 2.1 E 11 15 6 8 1001.8 1001.7 6.2
15/06:00am 14.0 13.1 10.6 80 1.8 W 6 17 3 9 1002.4 1002.3 6.2
15/05:30am 13.4 8.6 11.5 88 1.0 W 28 35 15 19 1001.9 1001.8 6.2
15/05:00am 14.2 10.9 12.9 92 0.7 W 22 26 12 14 1002.3 1002.2 6.2
15/04:30am 14.3 11.6 12.9 91 0.8 W 19 22 10 12 1001.9 1001.8 6.2
15/04:00am 14.3 12.0 12.9 91 0.8 WSW 17 20 9 11 1001.7 1001.6 6.2
15/03:30am 14.9 13.2 13.6 92 0.7 SW 15 19 8 10 1001.8 1001.7 6.2
15/03:00am 15.4 12.5 12.2 81 1.8 SSW 19 22 10 12 1001.8 1001.7 6.2
15/02:30am 14.4 12.1 13.0 91 0.8 SSW 17 20 9 11 1001.6 1001.5 6.2
15/02:00am 15.3 13.6 14.7 96 0.3 SSW 17 19 9 10 1001.7 1001.6 6.2
15/01:30am 15.6 13.7 15.1 97 0.3 SSW 19 22 10 12 1001.5 1001.4 6.0
15/01:00am 16.0 14.2 15.5 97 0.3 S 19 22 10 12 1001.4 1001.3 6.0
15/12:30am 15.5 12.5 14.9 96 0.3 SW 24 30 13 16 1001.8 1001.7 6.0
15/12:00am 16.3 15.9 15.3 94 0.6 WSW 11 15 6 8 1001.7 1001.6 6.0
 
Date/Time
EDT
Temp
°C
App
Temp
°C
Dew
Point
°C
Rel
Hum
%
Delta-T
°C
Wind Press
QNH
hPa
Press
MSL
hPa
Rain since
9am
mm
Dir  Spd
km/h
Gust
km/h
Spd
kts
Gust
kts
14/11:30pm 16.1 17.0 15.0 93 0.6 WNW 4 7 2 4 1002.2 1002.1 6.0
14/11:00pm 16.5 16.2 15.4 93 0.6 NW 11 15 6 8 1001.5 1001.4 6.0
14/10:30pm 17.4 17.3 15.9 91 0.9 NW 11 17 6 9 1002.1 1002.0 6.0
14/10:00pm 17.5 15.1 15.3 87 1.3 N 22 28 12 15 1002.5 1002.4 6.0
14/09:30pm 17.3 13.3 15.1 87 1.3 NNE 30 35 16 19 1002.5 1002.4 6.0
14/09:10pm 17.1 12.5 13.4 79 2.1 NNE 30 48 16 26 1002.2 1002.1 6.0
14/09:00pm 16.1 10.4 14.1 88 1.1 NNE 37 52 20 28 1002.1 1002.0 6.0
14/08:52pm 17.6 13.3 16.8 95 0.5 NNE 35 48 19 26 1002.3 1002.2 5.8
14/08:30pm 16.9 15.4 16.3 96 0.4 N 19 28 10 15 1002.3 1002.2 5.0
14/08:00pm 17.1 15.5 16.6 97 0.3 WNW 20 28 11 15 1002.5 1002.4 5.0
14/07:30pm 17.3 15.8 16.8 97 0.3 NNW 20 28 11 15 1001.9 1001.8 5.0
14/07:00pm 17.9 14.7 17.3 96 0.4 N 30 39 16 21 1002.3 1002.2 5.0
14/06:30pm 17.6 15.4 17.0 96 0.4 NNE 24 32 13 17 1002.2 1002.1 5.0
14/06:00pm 17.1 15.6 16.3 95 0.5 NNE 19 26 10 14 1002.3 1002.2 5.0
14/05:30pm 17.1 15.5 16.5 96 0.4 NE 20 24 11 13 1002.5 1002.4 4.8
14/05:00pm 17.0 12.7 16.0 94 0.6 NE 33 43 18 23 1003.0 1002.9 2.6
14/04:30pm 17.2 13.1 15.9 92 0.8 NE 32 37 17 20 1003.3 1003.2 1.6
14/04:00pm 17.5 13.9 16.2 92 0.8 NE 30 37 16 20 1004.0 1003.9 1.4
14/03:30pm 17.6 15.8 15.4 87 1.3 ENE 19 24 10 13 1003.7 1003.6 0.4
14/03:00pm 18.1 18.8 15.7 86 1.4 N 6 9 3 5 1003.9 1003.8 0.4
14/02:30pm 17.6 16.5 15.2 86 1.4 N 15 19 8 10 1004.6 1004.5 0.2
14/02:00pm 18.1 16.7 14.4 79 2.1 NNE 15 22 8 12 1005.1 1005.0 0.2
14/01:30pm 18.9 16.6 14.0 73 2.8 NNE 19 22 10 12 1004.8 1004.7 0.2
14/01:00pm 17.5 13.8 13.8 79 2.1 NE 26 33 14 18 1005.1 1005.0 0.2
14/12:30pm 17.8 13.5 13.3 75 2.5 NE 28 35 15 19 1005.8 1005.7 0.2
14/12:00pm 17.4 12.6 13.9 80 2.0 NNE 32 37 17 20 1006.1 1006.0 0.2
14/11:30am 16.5 12.9 13.2 81 1.8 NNE 24 32 13 17 1006.5 1006.4 0.2
14/11:00am 16.4 12.3 12.8 79 2.0 NNE 26 32 14 17 1006.3 1006.2 0.2
14/10:30am 16.5 13.7 12.7 78 2.1 NNE 19 22 10 12 1006.2 1006.1 0.2
14/10:00am 16.6 12.5 13.7 83 1.6 NNW 28 41 15 22 1007.1 1007.0 0.2
14/09:30am 16.3 12.4 13.2 82 1.7 NNE 26 32 14 17 1006.9 1006.8 0.2
14/09:00am 15.3 10.4 12.6 84 1.5 N 30 35 16 19 1008.1 1008.0 9.0
14/08:30am 15.5 11.2 13.2 86 1.3 NNW 28 37 15 20 1008.3 1008.3 9.0
14/08:25am 15.5 11.1 13.0 85 1.4 NNW 28 37 15 20 1008.1 1008.0 9.0
14/08:00am 15.8 14.1 13.6 87 1.2 NNE 15 17 8 9 1007.8 1007.7 9.0
14/07:30am 14.9 14.5 12.9 88 1.1 NNW 7 11 4 6 1007.7 1007.6 9.0
14/07:00am 14.5 13.1 13.5 94 0.6 WNW 13 26 7 14 1008.2 1008.2 9.0
14/06:42am 15.3 10.9 14.2 93 0.6 WNW 30 50 16 27 1008.3 1008.3 8.8
14/06:30am 15.4 12.2 14.3 93 0.6 WNW 24 30 13 16 1008.2 1008.2 8.8
14/06:00am 15.5 12.5 14.7 95 0.5 NNW 24 32 13 17 1007.7 1007.6 8.8
14/05:30am 15.8 12.4 14.8 94 0.6 NNW 26 33 14 18 1007.4 1007.3 8.8
14/05:25am 15.9 12.1 14.8 93 0.6 NNW 28 41 15 22 1007.3 1007.2 8.8
14/05:00am 17.0 11.1 15.7 92 0.8 N 41 54 22 29 1007.1 1007.0 8.8
14/04:30am 16.7 9.1 15.7 94 0.6 NNE 50 59 27 32 1006.9 1006.8 8.8
14/04:00am 16.7 7.4 15.7 94 0.6 NNE 59 72 32 39 1006.7 1006.6 8.0
14/03:30am 16.7 7.9 15.6 93 0.6 NNE 56 65 30 35 1007.1 1007.0 8.0
14/03:00am 16.9 9.6 15.4 91 0.9 NNE 48 70 26 38 1007.7 1007.6 8.0
14/02:52am 17.3 10.6 16.0 92 0.8 NNE 46 65 25 35 1008.0 1007.9 8.0
14/02:30am 17.4 8.4 15.0 86 1.4 NNE 56 67 30 36 1008.1 1008.0 8.0
14/02:00am 17.1 10.3 14.9 87 1.3 NNE 44 59 24 32 1008.5 1008.5 8.0
14/01:30am 16.7 12.1 15.1 90 0.9 N 33 46 18 25 1009.3 1009.3 8.0
14/01:00am 16.6 12.1 15.3 92 0.8 N 33 43 18 23 1009.9 1009.9 8.0
14/12:30am 16.5 10.0 15.7 95 0.5 NNE 44 57 24 31 1010.2 1010.2 8.0
14/12:00am 16.0 9.6 16.0 100 0.0 NE 44 59 24 32 1010.5 1010.5 7.8
 
Date/Time
EDT
Temp
°C
App
Temp
°C
Dew
Point
°C
Rel
Hum
%
Delta-T
°C
Wind Press
QNH
hPa
Press
MSL
hPa
Rain since
9am
mm
Dir  Spd
km/h
Gust
km/h
Spd
kts
Gust
kts
13/11:30pm 15.9 8.0 15.9 100 0.0 NE 52 63 28 34 1011.0 1011.0 6.2
13/11:14pm 16.2 10.1 16.2 100 0.0 NE 43 67 23 36 1011.1 1011.1 6.2
13/11:00pm 15.8 7.8 15.8 100 0.0 NE 52 67 28 36 1011.4 1011.4 6.0
13/10:30pm 15.4 6.3 15.4 100 0.0 NE 57 74 31 40 1011.7 1011.7 5.4
13/10:00pm 15.5 4.9 15.2 98 0.2 NE 65 76 35 41 1012.0 1012.0 5.4
13/09:30pm 15.2 6.6 15.0 99 0.1 NE 54 69 29 37 1012.4 1012.4 5.2
13/09:00pm 15.0 5.9 14.8 99 0.1 NE 56 67 30 36 1012.6 1012.6 4.2
13/08:30pm 15.1 7.6 14.9 99 0.1 ENE 48 56 26 30 1012.9 1012.9 3.2
13/08:00pm 14.8 7.1 14.5 98 0.2 NE 48 63 26 34 1012.7 1012.7 2.8
13/07:30pm 14.7 7.0 14.4 98 0.2 ENE 48 57 26 31 1012.7 1012.7 2.6
13/07:00pm 14.4 7.9 13.9 97 0.3 NE 41 48 22 26 1013.1 1013.0 2.2
13/06:30pm 14.2 7.5 13.4 95 0.4 NE 41 56 22 30 1013.3 1013.2 2.2
13/06:00pm 14.6 8.5 13.1 91 0.8 NNE 37 54 20 29 1013.4 1013.3 2.2
13/05:56pm 14.4 8.6 12.6 89 1.0 NNE 35 54 19 29 1013.4 1013.3 2.2
13/05:30pm 16.3 9.5 12.1 76 2.3 NE 39 50 21 27 1012.9 1012.9 1.8
13/05:00pm 16.3 10.3 12.1 76 2.3 NE 35 46 19 25 1013.2 1013.1 1.8
13/04:36pm 16.1 9.1 11.3 73 2.6 NE 39 59 21 32 1013.3 1013.2 1.8
13/04:30pm 16.5 10.4 11.9 74 2.5 NE 35 46 19 25 1013.3 1013.2 1.8
13/04:00pm 16.0 8.1 10.7 71 2.8 NE 43 50 23 27 1013.4 1013.3 1.8
13/03:30pm 14.4 8.8 11.6 83 1.5 NE 32 44 17 24 1014.0 1013.9 1.8
13/03:00pm 14.9 9.4 12.4 85 1.4 NNE 33 43 18 23 1014.3 1014.2 1.8
13/02:30pm 14.3 8.4 12.5 89 1.0 NNE 35 41 19 22 1014.6 1014.5 1.8
13/02:00pm 14.2 10.2 12.9 92 0.7 NNE 26 32 14 17 1015.0 1014.9 1.8
13/01:30pm 13.4 12.6 12.8 96 0.3 NNE 9 11 5 6 1015.2 1015.1 0.8
13/01:00pm 13.5 11.9 12.9 96 0.3 NE 13 19 7 10 1015.7 1015.6 0.6

Latest Capital City Observations: Canberra | Sydney | Melbourne | Brisbane | Adelaide | Perth | Hobart | Darwin

Other formats

Comma delimited format used in spreadsheet applications
http://www.bom.gov.au/fwo/IDN60903/IDN60903.94939.axf

JavaScript Object Notation format (JSON) in row-major order
http://www.bom.gov.au/fwo/IDN60903/IDN60903.94939.json

Data quality

Most of these data are generated automatically and are frequently updated. Quality checks on data are not normally performed. It is possible for incorrect values to appear. Refer to information at About Latest Weather Observations and please check the disclaimer before using these data.